sensor_id;sensor_type;location;lat;lon;timestamp;P1;durP1;ratioP1;P2;durP2;ratioP2
3941;SDS011;1985;48.592;8.850;2023-02-03T00:01:42;8.27;;;1.53;;
3941;SDS011;1985;48.592;8.850;2023-02-03T00:04:08;7.80;;;1.10;;
3941;SDS011;1985;48.592;8.850;2023-02-03T00:06:34;10.35;;;1.10;;
3941;SDS011;1985;48.592;8.850;2023-02-03T00:09:00;7.75;;;0.90;;
3941;SDS011;1985;48.592;8.850;2023-02-03T00:11:26;9.30;;;1.00;;
3941;SDS011;1985;48.592;8.850;2023-02-03T00:13:54;7.68;;;1.00;;
3941;SDS011;1985;48.592;8.850;2023-02-03T00:16:20;7.60;;;1.00;;
3941;SDS011;1985;48.592;8.850;2023-02-03T00:18:45;10.10;;;1.20;;
3941;SDS011;1985;48.592;8.850;2023-02-03T00:21:11;9.10;;;1.40;;
3941;SDS011;1985;48.592;8.850;2023-02-03T00:23:39;8.48;;;1.00;;
3941;SDS011;1985;48.592;8.850;2023-02-03T00:26:11;8.10;;;1.08;;
3941;SDS011;1985;48.592;8.850;2023-02-03T00:28:38;8.10;;;1.20;;
3941;SDS011;1985;48.592;8.850;2023-02-03T00:31:04;9.35;;;1.35;;
3941;SDS011;1985;48.592;8.850;2023-02-03T00:33:30;7.50;;;1.00;;
3941;SDS011;1985;48.592;8.850;2023-02-03T00:35:57;7.50;;;0.93;;
3941;SDS011;1985;48.592;8.850;2023-02-03T00:38:28;7.50;;;0.90;;
3941;SDS011;1985;48.592;8.850;2023-02-03T00:40:53;7.70;;;1.20;;
3941;SDS011;1985;48.592;8.850;2023-02-03T00:43:19;7.90;;;1.00;;
3941;SDS011;1985;48.592;8.850;2023-02-03T00:45:45;10.27;;;1.30;;
3941;SDS011;1985;48.592;8.850;2023-02-03T00:48:14;7.50;;;1.00;;
3941;SDS011;1985;48.592;8.850;2023-02-03T00:50:40;7.80;;;1.10;;
3941;SDS011;1985;48.592;8.850;2023-02-03T00:53:05;8.20;;;1.30;;
3941;SDS011;1985;48.592;8.850;2023-02-03T00:55:31;7.80;;;1.40;;
3941;SDS011;1985;48.592;8.850;2023-02-03T00:57:57;7.97;;;1.20;;
3941;SDS011;1985;48.592;8.850;2023-02-03T01:00:22;7.80;;;1.20;;
3941;SDS011;1985;48.592;8.850;2023-02-03T01:02:48;7.90;;;1.20;;
3941;SDS011;1985;48.592;8.850;2023-02-03T01:05:13;8.18;;;1.10;;
3941;SDS011;1985;48.592;8.850;2023-02-03T01:07:39;8.20;;;1.00;;
3941;SDS011;1985;48.592;8.850;2023-02-03T01:10:05;7.80;;;1.20;;
3941;SDS011;1985;48.592;8.850;2023-02-03T01:12:31;8.70;;;1.20;;
3941;SDS011;1985;48.592;8.850;2023-02-03T01:14:56;8.10;;;1.10;;
3941;SDS011;1985;48.592;8.850;2023-02-03T01:17:22;7.80;;;1.10;;
3941;SDS011;1985;48.592;8.850;2023-02-03T01:19:49;7.85;;;1.00;;
3941;SDS011;1985;48.592;8.850;2023-02-03T01:22:15;10.80;;;1.60;;
3941;SDS011;1985;48.592;8.850;2023-02-03T01:24:41;8.30;;;1.10;;
3941;SDS011;1985;48.592;8.850;2023-02-03T01:27:06;8.40;;;1.30;;
3941;SDS011;1985;48.592;8.850;2023-02-03T01:29:32;9.15;;;1.10;;
3941;SDS011;1985;48.592;8.850;2023-02-03T01:31:58;7.70;;;1.10;;
3941;SDS011;1985;48.592;8.850;2023-02-03T01:34:23;7.70;;;1.10;;
3941;SDS011;1985;48.592;8.850;2023-02-03T01:36:49;8.13;;;1.33;;
3941;SDS011;1985;48.592;8.850;2023-02-03T01:39:14;7.80;;;1.40;;
3941;SDS011;1985;48.592;8.850;2023-02-03T01:41:40;8.60;;;1.60;;
3941;SDS011;1985;48.592;8.850;2023-02-03T01:47:04;8.70;;;1.35;;
3941;SDS011;1985;48.592;8.850;2023-02-03T01:49:39;9.05;;;1.40;;
3941;SDS011;1985;48.592;8.850;2023-02-03T01:52:09;8.07;;;1.30;;
3941;SDS011;1985;48.592;8.850;2023-02-03T01:54:37;8.60;;;1.70;;
3941;SDS011;1985;48.592;8.850;2023-02-03T01:57:09;8.60;;;1.60;;
3941;SDS011;1985;48.592;8.850;2023-02-03T01:59:42;8.18;;;1.40;;
3941;SDS011;1985;48.592;8.850;2023-02-03T02:02:09;8.23;;;1.38;;
3941;SDS011;1985;48.592;8.850;2023-02-03T02:04:38;7.90;;;1.40;;
3941;SDS011;1985;48.592;8.850;2023-02-03T02:07:21;12.38;;;1.60;;
3941;SDS011;1985;48.592;8.850;2023-02-03T02:09:48;8.05;;;1.20;;
3941;SDS011;1985;48.592;8.850;2023-02-03T02:12:13;8.10;;;1.00;;
3941;SDS011;1985;48.592;8.850;2023-02-03T02:14:39;9.27;;;1.35;;
3941;SDS011;1985;48.592;8.850;2023-02-03T02:23:06;8.30;;;1.30;;
3941;SDS011;1985;48.592;8.850;2023-02-03T02:25:53;8.77;;;1.30;;
3941;SDS011;1985;48.592;8.850;2023-02-03T02:39:45;8.02;;;1.20;;
3941;SDS011;1985;48.592;8.850;2023-02-03T02:42:35;8.30;;;1.45;;
3941;SDS011;1985;48.592;8.850;2023-02-03T02:45:14;7.80;;;1.00;;
3941;SDS011;1985;48.592;8.850;2023-02-03T02:47:46;8.00;;;1.30;;
3941;SDS011;1985;48.592;8.850;2023-02-03T02:50:14;8.38;;;1.15;;
3941;SDS011;1985;48.592;8.850;2023-02-03T02:52:44;9.00;;;1.20;;
3941;SDS011;1985;48.592;8.850;2023-02-03T02:55:19;9.00;;;1.40;;
3941;SDS011;1985;48.592;8.850;2023-02-03T02:57:49;7.70;;;1.10;;
3941;SDS011;1985;48.592;8.850;2023-02-03T03:00:17;11.30;;;1.70;;
3941;SDS011;1985;48.592;8.850;2023-02-03T03:02:44;9.10;;;1.30;;
3941;SDS011;1985;48.592;8.850;2023-02-03T03:05:09;11.02;;;1.50;;
3941;SDS011;1985;48.592;8.850;2023-02-03T03:07:41;10.02;;;1.30;;
3941;SDS011;1985;48.592;8.850;2023-02-03T03:10:12;8.60;;;1.50;;
3941;SDS011;1985;48.592;8.850;2023-02-03T03:12:46;8.02;;;1.10;;
3941;SDS011;1985;48.592;8.850;2023-02-03T03:15:17;11.95;;;1.02;;
3941;SDS011;1985;48.592;8.850;2023-02-03T03:17:59;9.70;;;1.20;;
3941;SDS011;1985;48.592;8.850;2023-02-03T03:20:27;8.10;;;1.00;;
3941;SDS011;1985;48.592;8.850;2023-02-03T03:22:56;7.80;;;1.00;;
3941;SDS011;1985;48.592;8.850;2023-02-03T03:25:34;7.60;;;1.10;;
3941;SDS011;1985;48.592;8.850;2023-02-03T03:28:09;8.40;;;1.10;;
3941;SDS011;1985;48.592;8.850;2023-02-03T03:30:39;7.38;;;0.90;;
3941;SDS011;1985;48.592;8.850;2023-02-03T03:33:04;8.30;;;1.10;;
3941;SDS011;1985;48.592;8.850;2023-02-03T03:35:42;13.20;;;1.10;;
3941;SDS011;1985;48.592;8.850;2023-02-03T03:38:19;8.30;;;0.90;;
3941;SDS011;1985;48.592;8.850;2023-02-03T03:40:50;7.60;;;0.90;;
3941;SDS011;1985;48.592;8.850;2023-02-03T03:43:22;7.40;;;0.80;;
3941;SDS011;1985;48.592;8.850;2023-02-03T03:45:54;7.30;;;0.88;;
3941;SDS011;1985;48.592;8.850;2023-02-03T03:48:30;7.20;;;0.80;;
3941;SDS011;1985;48.592;8.850;2023-02-03T03:51:05;7.30;;;0.80;;
3941;SDS011;1985;48.592;8.850;2023-02-03T03:53:39;7.43;;;0.77;;
3941;SDS011;1985;48.592;8.850;2023-02-03T03:56:08;7.80;;;1.00;;
3941;SDS011;1985;48.592;8.850;2023-02-03T03:58:38;7.43;;;0.90;;
3941;SDS011;1985;48.592;8.850;2023-02-03T04:01:09;7.28;;;0.80;;
3941;SDS011;1985;48.592;8.850;2023-02-03T04:03:38;7.90;;;0.90;;
3941;SDS011;1985;48.592;8.850;2023-02-03T04:06:13;7.20;;;0.70;;
3941;SDS011;1985;48.592;8.850;2023-02-03T04:08:39;7.20;;;0.70;;
3941;SDS011;1985;48.592;8.850;2023-02-03T04:11:05;9.32;;;1.20;;
3941;SDS011;1985;48.592;8.850;2023-02-03T04:13:31;7.50;;;0.90;;
3941;SDS011;1985;48.592;8.850;2023-02-03T04:15:57;7.75;;;1.02;;
3941;SDS011;1985;48.592;8.850;2023-02-03T04:18:22;7.50;;;0.90;;
3941;SDS011;1985;48.592;8.850;2023-02-03T04:20:48;7.50;;;0.90;;
3941;SDS011;1985;48.592;8.850;2023-02-03T04:23:13;7.60;;;0.95;;
3941;SDS011;1985;48.592;8.850;2023-02-03T04:25:39;7.50;;;0.80;;
3941;SDS011;1985;48.592;8.850;2023-02-03T04:28:05;8.90;;;1.10;;
3941;SDS011;1985;48.592;8.850;2023-02-03T04:30:30;7.40;;;0.80;;
3941;SDS011;1985;48.592;8.850;2023-02-03T04:32:56;8.50;;;0.90;;
3941;SDS011;1985;48.592;8.850;2023-02-03T04:35:22;7.63;;;0.90;;
3941;SDS011;1985;48.592;8.850;2023-02-03T04:37:47;10.10;;;0.80;;
3941;SDS011;1985;48.592;8.850;2023-02-03T04:40:13;8.07;;;1.00;;
3941;SDS011;1985;48.592;8.850;2023-02-03T04:42:39;8.10;;;1.20;;
3941;SDS011;1985;48.592;8.850;2023-02-03T04:45:06;7.50;;;0.90;;
3941;SDS011;1985;48.592;8.850;2023-02-03T04:47:33;8.00;;;1.00;;
3941;SDS011;1985;48.592;8.850;2023-02-03T04:49:59;7.40;;;0.90;;
3941;SDS011;1985;48.592;8.850;2023-02-03T04:52:24;8.20;;;1.20;;
3941;SDS011;1985;48.592;8.850;2023-02-03T04:54:50;7.50;;;0.90;;
3941;SDS011;1985;48.592;8.850;2023-02-03T04:57:16;9.70;;;0.90;;
3941;SDS011;1985;48.592;8.850;2023-02-03T04:59:42;8.00;;;1.20;;
3941;SDS011;1985;48.592;8.850;2023-02-03T05:02:07;8.10;;;1.40;;
3941;SDS011;1985;48.592;8.850;2023-02-03T05:04:33;7.70;;;1.10;;
3941;SDS011;1985;48.592;8.850;2023-02-03T05:06:59;7.70;;;1.00;;
3941;SDS011;1985;48.592;8.850;2023-02-03T05:09:24;9.70;;;1.30;;
3941;SDS011;1985;48.592;8.850;2023-02-03T05:11:50;7.90;;;1.00;;
3941;SDS011;1985;48.592;8.850;2023-02-03T05:14:19;7.43;;;0.88;;
3941;SDS011;1985;48.592;8.850;2023-02-03T05:16:44;7.70;;;1.07;;
3941;SDS011;1985;48.592;8.850;2023-02-03T05:19:10;9.50;;;1.08;;
3941;SDS011;1985;48.592;8.850;2023-02-03T05:21:36;8.02;;;1.10;;
3941;SDS011;1985;48.592;8.850;2023-02-03T05:24:01;8.10;;;1.10;;
3941;SDS011;1985;48.592;8.850;2023-02-03T05:26:30;9.00;;;1.10;;
3941;SDS011;1985;48.592;8.850;2023-02-03T05:28:56;10.40;;;1.20;;
3941;SDS011;1985;48.592;8.850;2023-02-03T05:31:22;8.00;;;1.10;;
3941;SDS011;1985;48.592;8.850;2023-02-03T05:33:48;8.32;;;1.20;;
3941;SDS011;1985;48.592;8.850;2023-02-03T05:36:13;7.70;;;1.00;;
3941;SDS011;1985;48.592;8.850;2023-02-03T05:38:39;8.00;;;0.90;;
3941;SDS011;1985;48.592;8.850;2023-02-03T05:41:06;7.80;;;0.90;;
3941;SDS011;1985;48.592;8.850;2023-02-03T05:43:52;7.57;;;0.90;;
3941;SDS011;1985;48.592;8.850;2023-02-03T05:46:18;7.70;;;0.80;;
3941;SDS011;1985;48.592;8.850;2023-02-03T05:48:44;8.63;;;1.00;;
3941;SDS011;1985;48.592;8.850;2023-02-03T05:51:10;7.80;;;0.90;;
3941;SDS011;1985;48.592;8.850;2023-02-03T05:53:35;7.60;;;0.80;;
3941;SDS011;1985;48.592;8.850;2023-02-03T05:56:01;7.70;;;1.00;;
3941;SDS011;1985;48.592;8.850;2023-02-03T05:58:26;8.50;;;1.00;;
3941;SDS011;1985;48.592;8.850;2023-02-03T06:00:52;13.30;;;0.90;;
3941;SDS011;1985;48.592;8.850;2023-02-03T06:03:18;7.70;;;0.90;;
3941;SDS011;1985;48.592;8.850;2023-02-03T06:05:43;8.10;;;1.00;;
3941;SDS011;1985;48.592;8.850;2023-02-03T06:08:09;8.10;;;1.00;;
3941;SDS011;1985;48.592;8.850;2023-02-03T06:10:35;7.30;;;0.80;;
3941;SDS011;1985;48.592;8.850;2023-02-03T06:15:53;7.80;;;1.00;;
3941;SDS011;1985;48.592;8.850;2023-02-03T06:18:18;7.40;;;0.80;;
3941;SDS011;1985;48.592;8.850;2023-02-03T06:20:44;7.30;;;0.80;;
3941;SDS011;1985;48.592;8.850;2023-02-03T06:23:10;8.52;;;1.20;;
3941;SDS011;1985;48.592;8.850;2023-02-03T06:25:35;8.13;;;1.10;;
3941;SDS011;1985;48.592;8.850;2023-02-03T06:28:01;7.80;;;1.00;;
3941;SDS011;1985;48.592;8.850;2023-02-03T06:30:27;8.20;;;1.10;;
3941;SDS011;1985;48.592;8.850;2023-02-03T06:32:52;7.40;;;0.80;;
3941;SDS011;1985;48.592;8.850;2023-02-03T06:35:21;8.00;;;1.10;;
3941;SDS011;1985;48.592;8.850;2023-02-03T06:37:47;7.40;;;0.90;;
3941;SDS011;1985;48.592;8.850;2023-02-03T06:40:12;7.50;;;1.00;;
3941;SDS011;1985;48.592;8.850;2023-02-03T06:42:38;7.90;;;0.93;;
3941;SDS011;1985;48.592;8.850;2023-02-03T06:45:04;8.20;;;1.20;;
3941;SDS011;1985;48.592;8.850;2023-02-03T06:47:29;7.40;;;0.90;;
3941;SDS011;1985;48.592;8.850;2023-02-03T06:49:55;7.60;;;1.00;;
3941;SDS011;1985;48.592;8.850;2023-02-03T06:52:21;7.73;;;1.00;;
3941;SDS011;1985;48.592;8.850;2023-02-03T06:54:46;9.30;;;1.30;;
3941;SDS011;1985;48.592;8.850;2023-02-03T06:57:12;8.27;;;1.13;;
3941;SDS011;1985;48.592;8.850;2023-02-03T06:59:37;8.80;;;1.20;;
3941;SDS011;1985;48.592;8.850;2023-02-03T07:02:03;8.40;;;1.30;;
3941;SDS011;1985;48.592;8.850;2023-02-03T07:04:29;8.70;;;1.20;;
3941;SDS011;1985;48.592;8.850;2023-02-03T07:06:55;7.68;;;1.08;;
3941;SDS011;1985;48.592;8.850;2023-02-03T07:09:21;9.43;;;1.40;;
3941;SDS011;1985;48.592;8.850;2023-02-03T07:11:47;8.63;;;1.50;;
3941;SDS011;1985;48.592;8.850;2023-02-03T07:14:13;9.03;;;1.70;;
3941;SDS011;1985;48.592;8.850;2023-02-03T07:16:38;8.97;;;1.60;;
3941;SDS011;1985;48.592;8.850;2023-02-03T07:19:04;9.35;;;1.48;;
3941;SDS011;1985;48.592;8.850;2023-02-03T07:21:30;8.20;;;1.30;;
3941;SDS011;1985;48.592;8.850;2023-02-03T07:23:55;8.90;;;1.40;;
3941;SDS011;1985;48.592;8.850;2023-02-03T07:26:21;9.27;;;1.35;;
3941;SDS011;1985;48.592;8.850;2023-02-03T07:28:48;7.90;;;1.20;;
3941;SDS011;1985;48.592;8.850;2023-02-03T07:31:14;8.60;;;1.30;;
3941;SDS011;1985;48.592;8.850;2023-02-03T07:33:39;8.33;;;1.40;;
3941;SDS011;1985;48.592;8.850;2023-02-03T07:36:05;8.93;;;1.80;;
3941;SDS011;1985;48.592;8.850;2023-02-03T07:38:31;9.70;;;1.75;;
3941;SDS011;1985;48.592;8.850;2023-02-03T07:40:57;11.30;;;1.73;;
3941;SDS011;1985;48.592;8.850;2023-02-03T07:43:23;9.15;;;1.60;;
3941;SDS011;1985;48.592;8.850;2023-02-03T07:45:49;12.18;;;2.10;;
3941;SDS011;1985;48.592;8.850;2023-02-03T07:48:14;10.68;;;1.90;;
3941;SDS011;1985;48.592;8.850;2023-02-03T07:50:40;9.20;;;1.80;;
3941;SDS011;1985;48.592;8.850;2023-02-03T07:53:06;7.88;;;1.27;;
3941;SDS011;1985;48.592;8.850;2023-02-03T07:55:36;8.50;;;1.50;;
3941;SDS011;1985;48.592;8.850;2023-02-03T07:58:03;8.73;;;1.60;;
3941;SDS011;1985;48.592;8.850;2023-02-03T08:00:29;9.63;;;1.75;;
3941;SDS011;1985;48.592;8.850;2023-02-03T08:02:54;13.30;;;3.73;;
3941;SDS011;1985;48.592;8.850;2023-02-03T08:05:20;10.20;;;2.33;;
3941;SDS011;1985;48.592;8.850;2023-02-03T08:07:46;9.93;;;2.33;;
3941;SDS011;1985;48.592;8.850;2023-02-03T08:10:12;25.00;;;12.53;;
3941;SDS011;1985;48.592;8.850;2023-02-03T08:12:39;21.90;;;9.65;;
3941;SDS011;1985;48.592;8.850;2023-02-03T08:15:07;13.48;;;3.80;;
3941;SDS011;1985;48.592;8.850;2023-02-03T08:17:33;10.85;;;2.60;;
3941;SDS011;1985;48.592;8.850;2023-02-03T08:19:59;13.90;;;2.10;;
3941;SDS011;1985;48.592;8.850;2023-02-03T08:22:25;13.50;;;1.60;;
3941;SDS011;1985;48.592;8.850;2023-02-03T08:24:51;12.18;;;2.35;;
3941;SDS011;1985;48.592;8.850;2023-02-03T08:27:17;10.47;;;2.30;;
3941;SDS011;1985;48.592;8.850;2023-02-03T08:29:45;9.32;;;2.10;;
3941;SDS011;1985;48.592;8.850;2023-02-03T08:32:11;12.27;;;2.13;;
3941;SDS011;1985;48.592;8.850;2023-02-03T08:34:39;9.97;;;1.80;;
3941;SDS011;1985;48.592;8.850;2023-02-03T08:37:05;9.00;;;1.80;;
3941;SDS011;1985;48.592;8.850;2023-02-03T08:39:32;8.57;;;1.40;;
3941;SDS011;1985;48.592;8.850;2023-02-03T08:41:59;12.60;;;1.70;;
3941;SDS011;1985;48.592;8.850;2023-02-03T08:44:25;8.90;;;2.00;;
3941;SDS011;1985;48.592;8.850;2023-02-03T08:46:51;9.33;;;1.80;;
3941;SDS011;1985;48.592;8.850;2023-02-03T08:49:17;9.35;;;1.95;;
3941;SDS011;1985;48.592;8.850;2023-02-03T08:51:44;13.60;;;1.60;;
3941;SDS011;1985;48.592;8.850;2023-02-03T08:54:13;10.70;;;1.90;;
3941;SDS011;1985;48.592;8.850;2023-02-03T08:56:39;9.70;;;1.70;;
3941;SDS011;1985;48.592;8.850;2023-02-03T08:59:05;9.10;;;1.50;;
3941;SDS011;1985;48.592;8.850;2023-02-03T09:01:31;10.35;;;3.55;;
3941;SDS011;1985;48.592;8.850;2023-02-03T09:03:57;8.25;;;1.77;;
3941;SDS011;1985;48.592;8.850;2023-02-03T09:06:25;8.52;;;1.17;;
3941;SDS011;1985;48.592;8.850;2023-02-03T09:08:50;11.60;;;1.30;;
3941;SDS011;1985;48.592;8.850;2023-02-03T09:11:17;8.30;;;1.25;;
3941;SDS011;1985;48.592;8.850;2023-02-03T09:13:43;9.68;;;1.10;;
3941;SDS011;1985;48.592;8.850;2023-02-03T09:16:13;8.40;;;1.20;;
3941;SDS011;1985;48.592;8.850;2023-02-03T09:18:46;8.52;;;1.10;;
3941;SDS011;1985;48.592;8.850;2023-02-03T09:21:12;8.47;;;1.17;;
3941;SDS011;1985;48.592;8.850;2023-02-03T09:23:42;7.60;;;1.00;;
3941;SDS011;1985;48.592;8.850;2023-02-03T09:26:10;8.95;;;1.38;;
3941;SDS011;1985;48.592;8.850;2023-02-03T09:28:37;9.50;;;1.30;;
3941;SDS011;1985;48.592;8.850;2023-02-03T09:31:04;8.80;;;1.00;;
3941;SDS011;1985;48.592;8.850;2023-02-03T09:33:35;8.60;;;1.20;;
3941;SDS011;1985;48.592;8.850;2023-02-03T09:36:01;7.80;;;1.10;;
3941;SDS011;1985;48.592;8.850;2023-02-03T09:38:27;9.13;;;1.90;;
3941;SDS011;1985;48.592;8.850;2023-02-03T09:40:58;8.03;;;1.10;;
3941;SDS011;1985;48.592;8.850;2023-02-03T09:43:34;7.80;;;1.00;;
3941;SDS011;1985;48.592;8.850;2023-02-03T09:46:13;7.63;;;1.10;;
3941;SDS011;1985;48.592;8.850;2023-02-03T09:48:43;8.68;;;0.90;;
3941;SDS011;1985;48.592;8.850;2023-02-03T09:51:16;10.70;;;1.10;;
3941;SDS011;1985;48.592;8.850;2023-02-03T09:53:51;8.07;;;1.00;;
3941;SDS011;1985;48.592;8.850;2023-02-03T09:56:33;7.60;;;0.90;;
3941;SDS011;1985;48.592;8.850;2023-02-03T09:59:00;9.10;;;0.90;;
3941;SDS011;1985;48.592;8.850;2023-02-03T10:01:33;8.38;;;1.10;;
3941;SDS011;1985;48.592;8.850;2023-02-03T10:04:37;7.60;;;0.90;;
3941;SDS011;1985;48.592;8.850;2023-02-03T10:07:08;7.72;;;1.02;;
3941;SDS011;1985;48.592;8.850;2023-02-03T10:18:26;7.70;;;0.90;;
3941;SDS011;1985;48.592;8.850;2023-02-03T10:20:59;7.60;;;0.98;;
3941;SDS011;1985;48.592;8.850;2023-02-03T10:23:29;8.50;;;1.00;;
3941;SDS011;1985;48.592;8.850;2023-02-03T10:26:15;8.13;;;1.10;;
3941;SDS011;1985;48.592;8.850;2023-02-03T10:28:55;7.72;;;0.80;;
3941;SDS011;1985;48.592;8.850;2023-02-03T10:31:24;7.60;;;0.90;;
3941;SDS011;1985;48.592;8.850;2023-02-03T10:34:13;7.40;;;0.80;;
3941;SDS011;1985;48.592;8.850;2023-02-03T10:41:52;7.60;;;1.00;;
3941;SDS011;1985;48.592;8.850;2023-02-03T10:44:18;8.20;;;1.10;;
3941;SDS011;1985;48.592;8.850;2023-02-03T10:46:44;8.00;;;1.00;;
3941;SDS011;1985;48.592;8.850;2023-02-03T10:49:10;8.10;;;1.03;;
3941;SDS011;1985;48.592;8.850;2023-02-03T10:51:39;7.70;;;0.90;;
3941;SDS011;1985;48.592;8.850;2023-02-03T10:54:31;8.20;;;0.93;;
3941;SDS011;1985;48.592;8.850;2023-02-03T10:57:05;7.70;;;0.80;;
3941;SDS011;1985;48.592;8.850;2023-02-03T10:59:38;7.60;;;0.90;;
3941;SDS011;1985;48.592;8.850;2023-02-03T11:02:08;7.60;;;0.90;;
3941;SDS011;1985;48.592;8.850;2023-02-03T11:04:45;8.40;;;0.98;;
3941;SDS011;1985;48.592;8.850;2023-02-03T11:07:22;7.40;;;0.70;;
3941;SDS011;1985;48.592;8.850;2023-02-03T11:09:49;9.50;;;0.90;;
3941;SDS011;1985;48.592;8.850;2023-02-03T11:12:16;10.20;;;1.00;;
3941;SDS011;1985;48.592;8.850;2023-02-03T11:14:47;9.10;;;1.10;;
3941;SDS011;1985;48.592;8.850;2023-02-03T11:19:47;7.80;;;0.90;;
3941;SDS011;1985;48.592;8.850;2023-02-03T11:24:58;8.20;;;0.90;;
3941;SDS011;1985;48.592;8.850;2023-02-03T11:27:27;8.30;;;0.90;;
3941;SDS011;1985;48.592;8.850;2023-02-03T11:30:16;7.90;;;1.00;;
3941;SDS011;1985;48.592;8.850;2023-02-03T11:32:41;8.00;;;0.90;;
3941;SDS011;1985;48.592;8.850;2023-02-03T11:35:24;7.80;;;0.80;;
3941;SDS011;1985;48.592;8.850;2023-02-03T11:37:59;7.82;;;0.85;;
3941;SDS011;1985;48.592;8.850;2023-02-03T11:40:29;8.50;;;0.80;;
3941;SDS011;1985;48.592;8.850;2023-02-03T11:45:40;7.60;;;0.80;;
3941;SDS011;1985;48.592;8.850;2023-02-03T11:48:17;11.95;;;0.85;;
3941;SDS011;1985;48.592;8.850;2023-02-03T11:54:05;9.40;;;0.90;;
3941;SDS011;1985;48.592;8.850;2023-02-03T11:59:45;8.20;;;0.90;;
3941;SDS011;1985;48.592;8.850;2023-02-03T12:16:03;7.50;;;0.80;;
3941;SDS011;1985;48.592;8.850;2023-02-03T12:19:04;8.18;;;1.00;;
3941;SDS011;1985;48.592;8.850;2023-02-03T12:21:43;7.78;;;0.80;;
3941;SDS011;1985;48.592;8.850;2023-02-03T12:24:32;7.50;;;0.70;;
3941;SDS011;1985;48.592;8.850;2023-02-03T12:32:50;7.75;;;0.90;;
3941;SDS011;1985;48.592;8.850;2023-02-03T12:36:07;7.90;;;1.10;;
3941;SDS011;1985;48.592;8.850;2023-02-03T12:38:19;7.75;;;0.90;;
3941;SDS011;1985;48.592;8.850;2023-02-03T12:40:58;7.80;;;0.90;;
3941;SDS011;1985;48.592;8.850;2023-02-03T12:45:54;8.90;;;1.00;;
3941;SDS011;1985;48.592;8.850;2023-02-03T12:48:25;8.60;;;1.00;;
3941;SDS011;1985;48.592;8.850;2023-02-03T12:51:01;8.90;;;1.00;;
3941;SDS011;1985;48.592;8.850;2023-02-03T12:53:31;9.70;;;1.00;;
3941;SDS011;1985;48.592;8.850;2023-02-03T12:56:06;8.43;;;1.10;;
3941;SDS011;1985;48.592;8.850;2023-02-03T12:58:43;7.70;;;0.90;;
3941;SDS011;1985;48.592;8.850;2023-02-03T13:06:51;7.80;;;1.00;;
3941;SDS011;1985;48.592;8.850;2023-02-03T13:09:53;7.95;;;0.93;;
3941;SDS011;1985;48.592;8.850;2023-02-03T13:12:32;8.00;;;1.20;;
3941;SDS011;1985;48.592;8.850;2023-02-03T13:17:45;8.10;;;1.10;;
3941;SDS011;1985;48.592;8.850;2023-02-03T13:20:32;7.75;;;0.90;;
3941;SDS011;1985;48.592;8.850;2023-02-03T13:23:00;7.50;;;0.80;;
3941;SDS011;1985;48.592;8.850;2023-02-03T13:44:48;8.18;;;1.02;;
3941;SDS011;1985;48.592;8.850;2023-02-03T13:47:21;8.23;;;1.00;;
3941;SDS011;1985;48.592;8.850;2023-02-03T13:50:02;8.40;;;1.10;;
3941;SDS011;1985;48.592;8.850;2023-02-03T13:52:35;8.50;;;0.90;;
3941;SDS011;1985;48.592;8.850;2023-02-03T13:55:19;7.90;;;1.00;;
3941;SDS011;1985;48.592;8.850;2023-02-03T13:57:52;8.20;;;1.00;;
3941;SDS011;1985;48.592;8.850;2023-02-03T14:03:15;7.88;;;0.88;;
3941;SDS011;1985;48.592;8.850;2023-02-03T14:05:44;7.90;;;0.90;;
3941;SDS011;1985;48.592;8.850;2023-02-03T14:16:37;8.10;;;0.80;;
3941;SDS011;1985;48.592;8.850;2023-02-03T14:19:03;9.90;;;0.90;;
3941;SDS011;1985;48.592;8.850;2023-02-03T14:21:37;9.90;;;1.20;;
3941;SDS011;1985;48.592;8.850;2023-02-03T14:24:10;8.10;;;0.90;;
3941;SDS011;1985;48.592;8.850;2023-02-03T14:29:08;8.65;;;1.10;;
3941;SDS011;1985;48.592;8.850;2023-02-03T14:34:33;7.90;;;0.90;;
3941;SDS011;1985;48.592;8.850;2023-02-03T14:40:08;7.70;;;0.80;;
3941;SDS011;1985;48.592;8.850;2023-02-03T14:48:26;7.90;;;0.80;;
3941;SDS011;1985;48.592;8.850;2023-02-03T14:53:39;7.95;;;1.05;;
3941;SDS011;1985;48.592;8.850;2023-02-03T14:59:23;7.60;;;0.90;;
3941;SDS011;1985;48.592;8.850;2023-02-03T15:04:27;9.20;;;0.88;;
3941;SDS011;1985;48.592;8.850;2023-02-03T15:06:53;7.68;;;0.90;;
3941;SDS011;1985;48.592;8.850;2023-02-03T15:12:16;7.75;;;0.90;;
3941;SDS011;1985;48.592;8.850;2023-02-03T15:14:46;8.55;;;1.05;;
3941;SDS011;1985;48.592;8.850;2023-02-03T15:17:20;7.90;;;1.10;;
3941;SDS011;1985;48.592;8.850;2023-02-03T15:19:47;7.60;;;0.90;;
3941;SDS011;1985;48.592;8.850;2023-02-03T15:22:23;7.50;;;0.80;;
3941;SDS011;1985;48.592;8.850;2023-02-03T15:24:52;9.57;;;1.85;;
3941;SDS011;1985;48.592;8.850;2023-02-03T15:27:29;7.60;;;0.90;;
3941;SDS011;1985;48.592;8.850;2023-02-03T15:29:56;8.98;;;2.22;;
3941;SDS011;1985;48.592;8.850;2023-02-03T15:32:34;8.73;;;1.83;;
3941;SDS011;1985;48.592;8.850;2023-02-03T15:35:05;7.60;;;0.90;;
3941;SDS011;1985;48.592;8.850;2023-02-03T15:37:42;7.90;;;1.00;;
3941;SDS011;1985;48.592;8.850;2023-02-03T15:40:18;8.43;;;1.00;;
3941;SDS011;1985;48.592;8.850;2023-02-03T15:45:25;7.85;;;1.00;;
3941;SDS011;1985;48.592;8.850;2023-02-03T15:50:38;8.63;;;1.00;;
3941;SDS011;1985;48.592;8.850;2023-02-03T15:53:20;8.40;;;1.10;;
3941;SDS011;1985;48.592;8.850;2023-02-03T15:55:53;7.80;;;0.95;;
3941;SDS011;1985;48.592;8.850;2023-02-03T15:58:23;7.60;;;0.90;;
3941;SDS011;1985;48.592;8.850;2023-02-03T16:00:58;7.80;;;0.90;;
3941;SDS011;1985;48.592;8.850;2023-02-03T16:06:04;8.40;;;1.20;;
3941;SDS011;1985;48.592;8.850;2023-02-03T16:08:38;7.72;;;0.90;;
3941;SDS011;1985;48.592;8.850;2023-02-03T16:13:54;7.60;;;0.90;;
3941;SDS011;1985;48.592;8.850;2023-02-03T16:16:25;8.20;;;1.40;;
3941;SDS011;1985;48.592;8.850;2023-02-03T16:18:56;7.90;;;1.10;;
3941;SDS011;1985;48.592;8.850;2023-02-03T16:27:18;8.00;;;1.00;;
3941;SDS011;1985;48.592;8.850;2023-02-03T16:29:44;7.60;;;0.90;;
3941;SDS011;1985;48.592;8.850;2023-02-03T16:32:29;7.70;;;1.00;;
3941;SDS011;1985;48.592;8.850;2023-02-03T16:35:13;8.90;;;1.20;;
3941;SDS011;1985;48.592;8.850;2023-02-03T16:38:03;7.90;;;1.00;;
3941;SDS011;1985;48.592;8.850;2023-02-03T16:40:59;8.10;;;1.30;;
3941;SDS011;1985;48.592;8.850;2023-02-03T16:43:43;8.07;;;1.10;;
3941;SDS011;1985;48.592;8.850;2023-02-03T16:46:28;7.90;;;0.95;;
3941;SDS011;1985;48.592;8.850;2023-02-03T16:49:12;7.70;;;1.10;;
3941;SDS011;1985;48.592;8.850;2023-02-03T16:51:56;7.80;;;0.90;;
3941;SDS011;1985;48.592;8.850;2023-02-03T16:54:21;7.60;;;0.80;;
3941;SDS011;1985;48.592;8.850;2023-02-03T16:56:48;7.63;;;0.90;;
3941;SDS011;1985;48.592;8.850;2023-02-03T16:59:16;7.60;;;0.90;;
3941;SDS011;1985;48.592;8.850;2023-02-03T17:01:41;10.00;;;1.00;;
3941;SDS011;1985;48.592;8.850;2023-02-03T17:04:08;7.95;;;0.80;;
3941;SDS011;1985;48.592;8.850;2023-02-03T17:06:36;7.50;;;0.83;;
3941;SDS011;1985;48.592;8.850;2023-02-03T17:09:03;10.35;;;1.00;;
3941;SDS011;1985;48.592;8.850;2023-02-03T17:11:28;7.40;;;0.80;;
3941;SDS011;1985;48.592;8.850;2023-02-03T17:13:54;7.40;;;0.70;;
3941;SDS011;1985;48.592;8.850;2023-02-03T17:16:22;7.97;;;1.00;;
3941;SDS011;1985;48.592;8.850;2023-02-03T17:18:49;8.80;;;1.20;;
3941;SDS011;1985;48.592;8.850;2023-02-03T17:21:16;8.03;;;0.90;;
3941;SDS011;1985;48.592;8.850;2023-02-03T17:23:44;7.60;;;0.90;;
3941;SDS011;1985;48.592;8.850;2023-02-03T17:26:10;7.60;;;0.90;;
3941;SDS011;1985;48.592;8.850;2023-02-03T17:28:37;7.80;;;1.00;;
3941;SDS011;1985;48.592;8.850;2023-02-03T17:31:07;7.60;;;1.00;;
3941;SDS011;1985;48.592;8.850;2023-02-03T17:33:39;7.30;;;0.70;;
3941;SDS011;1985;48.592;8.850;2023-02-03T17:38:36;8.27;;;0.90;;
3941;SDS011;1985;48.592;8.850;2023-02-03T17:41:07;7.40;;;0.80;;
3941;SDS011;1985;48.592;8.850;2023-02-03T17:43:36;7.63;;;0.90;;
3941;SDS011;1985;48.592;8.850;2023-02-03T17:46:02;8.40;;;1.10;;
3941;SDS011;1985;48.592;8.850;2023-02-03T17:48:28;8.10;;;1.00;;
3941;SDS011;1985;48.592;8.850;2023-02-03T17:50:54;8.88;;;1.60;;
3941;SDS011;1985;48.592;8.850;2023-02-03T17:53:28;7.90;;;1.20;;
3941;SDS011;1985;48.592;8.850;2023-02-03T17:55:54;7.55;;;0.90;;
3941;SDS011;1985;48.592;8.850;2023-02-03T17:58:20;7.63;;;0.90;;
3941;SDS011;1985;48.592;8.850;2023-02-03T18:00:45;7.70;;;0.90;;
3941;SDS011;1985;48.592;8.850;2023-02-03T18:03:11;7.80;;;0.90;;
3941;SDS011;1985;48.592;8.850;2023-02-03T18:05:36;7.60;;;0.80;;
3941;SDS011;1985;48.592;8.850;2023-02-03T18:08:03;7.80;;;1.08;;